sensor_id;sensor_type;location;lat;lon;timestamp;P1;durP1;ratioP1;P2;durP2;ratioP2
35298;SDS011;21415;48.054;16.646;2023-02-22T00:00:28;2.42;;;1.98;;
35298;SDS011;21415;48.054;16.646;2023-02-22T00:03:16;3.28;;;2.10;;
35298;SDS011;21415;48.054;16.646;2023-02-22T00:05:43;4.10;;;2.50;;
35298;SDS011;21415;48.054;16.646;2023-02-22T00:08:15;4.30;;;2.63;;
35298;SDS011;21415;48.054;16.646;2023-02-22T00:10:42;3.88;;;2.25;;
35298;SDS011;21415;48.054;16.646;2023-02-22T00:13:08;4.60;;;2.30;;
35298;SDS011;21415;48.054;16.646;2023-02-22T00:15:37;3.90;;;2.45;;
35298;SDS011;21415;48.054;16.646;2023-02-22T00:18:07;4.38;;;2.03;;
35298;SDS011;21415;48.054;16.646;2023-02-22T00:20:35;4.38;;;2.20;;
35298;SDS011;21415;48.054;16.646;2023-02-22T00:23:05;2.75;;;1.90;;
35298;SDS011;21415;48.054;16.646;2023-02-22T00:25:32;3.47;;;1.92;;
35298;SDS011;21415;48.054;16.646;2023-02-22T00:27:59;3.60;;;1.95;;
35298;SDS011;21415;48.054;16.646;2023-02-22T00:32:54;3.63;;;2.28;;
35298;SDS011;21415;48.054;16.646;2023-02-22T00:35:24;3.22;;;2.10;;
35298;SDS011;21415;48.054;16.646;2023-02-22T00:37:58;4.57;;;2.05;;
35298;SDS011;21415;48.054;16.646;2023-02-22T00:40:26;4.35;;;2.00;;
35298;SDS011;21415;48.054;16.646;2023-02-22T00:42:56;4.82;;;2.08;;
35298;SDS011;21415;48.054;16.646;2023-02-22T00:45:23;3.55;;;1.90;;
35298;SDS011;21415;48.054;16.646;2023-02-22T00:47:50;4.10;;;1.90;;
35298;SDS011;21415;48.054;16.646;2023-02-22T00:50:18;2.45;;;1.90;;
35298;SDS011;21415;48.054;16.646;2023-02-22T00:52:48;4.18;;;1.90;;
35298;SDS011;21415;48.054;16.646;2023-02-22T00:55:25;3.17;;;1.95;;
35298;SDS011;21415;48.054;16.646;2023-02-22T00:57:52;3.60;;;1.73;;
35298;SDS011;21415;48.054;16.646;2023-02-22T01:00:28;2.75;;;1.40;;
35298;SDS011;21415;48.054;16.646;2023-02-22T01:03:06;3.67;;;1.67;;
35298;SDS011;21415;48.054;16.646;2023-02-22T01:05:34;2.10;;;1.50;;
35298;SDS011;21415;48.054;16.646;2023-02-22T01:08:03;3.72;;;1.58;;
35298;SDS011;21415;48.054;16.646;2023-02-22T01:10:33;1.88;;;1.27;;
35298;SDS011;21415;48.054;16.646;2023-02-22T01:13:00;2.60;;;1.30;;
35298;SDS011;21415;48.054;16.646;2023-02-22T01:15:30;2.17;;;1.27;;
35298;SDS011;21415;48.054;16.646;2023-02-22T01:17:56;2.97;;;1.17;;
35298;SDS011;21415;48.054;16.646;2023-02-22T01:20:24;3.03;;;1.27;;
35298;SDS011;21415;48.054;16.646;2023-02-22T01:22:52;2.05;;;1.40;;
35298;SDS011;21415;48.054;16.646;2023-02-22T01:25:22;1.95;;;1.50;;
35298;SDS011;21415;48.054;16.646;2023-02-22T01:27:50;2.50;;;1.10;;
35298;SDS011;21415;48.054;16.646;2023-02-22T01:30:21;2.75;;;1.08;;
35298;SDS011;21415;48.054;16.646;2023-02-22T01:32:49;1.92;;;1.08;;
35298;SDS011;21415;48.054;16.646;2023-02-22T01:35:16;2.58;;;1.40;;
35298;SDS011;21415;48.054;16.646;2023-02-22T01:37:45;2.03;;;1.20;;
35298;SDS011;21415;48.054;16.646;2023-02-22T01:40:15;2.13;;;1.33;;
35298;SDS011;21415;48.054;16.646;2023-02-22T01:42:46;2.30;;;1.30;;
35298;SDS011;21415;48.054;16.646;2023-02-22T01:48:07;2.58;;;1.13;;
35298;SDS011;21415;48.054;16.646;2023-02-22T01:50:38;4.05;;;1.20;;
35298;SDS011;21415;48.054;16.646;2023-02-22T01:53:08;2.28;;;1.40;;
35298;SDS011;21415;48.054;16.646;2023-02-22T01:55:39;2.90;;;1.10;;
35298;SDS011;21415;48.054;16.646;2023-02-22T01:58:05;1.40;;;0.98;;
35298;SDS011;21415;48.054;16.646;2023-02-22T02:00:33;1.67;;;1.40;;
35298;SDS011;21415;48.054;16.646;2023-02-22T02:03:01;3.03;;;1.67;;
35298;SDS011;21415;48.054;16.646;2023-02-22T02:05:33;2.63;;;1.38;;
35298;SDS011;21415;48.054;16.646;2023-02-22T02:08:03;2.40;;;1.45;;
35298;SDS011;21415;48.054;16.646;2023-02-22T02:10:40;2.55;;;1.30;;
35298;SDS011;21415;48.054;16.646;2023-02-22T02:13:08;1.83;;;1.10;;
35298;SDS011;21415;48.054;16.646;2023-02-22T02:15:34;1.83;;;1.30;;
35298;SDS011;21415;48.054;16.646;2023-02-22T02:18:02;2.47;;;1.33;;
35298;SDS011;21415;48.054;16.646;2023-02-22T02:31:53;1.67;;;1.10;;
35298;SDS011;21415;48.054;16.646;2023-02-22T02:34:36;2.65;;;0.90;;
35298;SDS011;21415;48.054;16.646;2023-02-22T02:40:14;1.63;;;1.02;;
35298;SDS011;21415;48.054;16.646;2023-02-22T02:45:47;1.60;;;1.20;;
35298;SDS011;21415;48.054;16.646;2023-02-22T02:48:20;1.55;;;1.02;;
35298;SDS011;21415;48.054;16.646;2023-02-22T02:50:49;2.78;;;1.52;;
35298;SDS011;21415;48.054;16.646;2023-02-22T02:53:18;2.92;;;1.25;;
35298;SDS011;21415;48.054;16.646;2023-02-22T02:55:49;1.35;;;1.00;;
35298;SDS011;21415;48.054;16.646;2023-02-22T02:58:18;1.20;;;0.90;;
35298;SDS011;21415;48.054;16.646;2023-02-22T03:00:46;1.90;;;1.30;;
35298;SDS011;21415;48.054;16.646;2023-02-22T03:06:06;1.52;;;1.00;;
35298;SDS011;21415;48.054;16.646;2023-02-22T03:08:42;1.83;;;1.20;;
35298;SDS011;21415;48.054;16.646;2023-02-22T03:11:37;2.08;;;0.90;;
35298;SDS011;21415;48.054;16.646;2023-02-22T03:14:22;1.70;;;1.05;;
35298;SDS011;21415;48.054;16.646;2023-02-22T03:19:27;2.25;;;1.13;;
35298;SDS011;21415;48.054;16.646;2023-02-22T03:25:23;4.80;;;1.40;;
35298;SDS011;21415;48.054;16.646;2023-02-22T03:28:00;2.78;;;1.30;;
35298;SDS011;21415;48.054;16.646;2023-02-22T03:33:20;3.13;;;1.70;;
35298;SDS011;21415;48.054;16.646;2023-02-22T03:36:04;2.30;;;1.50;;
35298;SDS011;21415;48.054;16.646;2023-02-22T03:38:52;2.47;;;1.52;;
35298;SDS011;21415;48.054;16.646;2023-02-22T03:41:22;3.72;;;1.58;;
35298;SDS011;21415;48.054;16.646;2023-02-22T03:43:56;3.03;;;1.35;;
35298;SDS011;21415;48.054;16.646;2023-02-22T03:46:28;2.15;;;1.48;;
35298;SDS011;21415;48.054;16.646;2023-02-22T03:48:59;2.63;;;1.50;;
35298;SDS011;21415;48.054;16.646;2023-02-22T03:51:36;2.53;;;1.23;;
35298;SDS011;21415;48.054;16.646;2023-02-22T03:54:03;2.20;;;1.60;;
35298;SDS011;21415;48.054;16.646;2023-02-22T03:56:40;2.72;;;1.90;;
35298;SDS011;21415;48.054;16.646;2023-02-22T03:59:11;3.03;;;1.70;;
35298;SDS011;21415;48.054;16.646;2023-02-22T04:01:37;2.42;;;1.58;;
35298;SDS011;21415;48.054;16.646;2023-02-22T04:04:03;1.98;;;1.40;;
35298;SDS011;21415;48.054;16.646;2023-02-22T04:06:30;1.95;;;1.70;;
35298;SDS011;21415;48.054;16.646;2023-02-22T04:09:00;2.22;;;1.65;;
35298;SDS011;21415;48.054;16.646;2023-02-22T04:11:26;2.83;;;1.67;;
35298;SDS011;21415;48.054;16.646;2023-02-22T04:13:51;2.58;;;1.58;;
35298;SDS011;21415;48.054;16.646;2023-02-22T04:16:19;3.45;;;1.80;;
35298;SDS011;21415;48.054;16.646;2023-02-22T04:18:45;2.65;;;1.50;;
35298;SDS011;21415;48.054;16.646;2023-02-22T04:21:13;1.73;;;1.40;;
35298;SDS011;21415;48.054;16.646;2023-02-22T04:23:42;1.98;;;1.30;;
35298;SDS011;21415;48.054;16.646;2023-02-22T04:26:09;2.17;;;1.48;;
35298;SDS011;21415;48.054;16.646;2023-02-22T04:28:35;1.88;;;1.30;;
35298;SDS011;21415;48.054;16.646;2023-02-22T04:31:09;2.80;;;1.25;;
35298;SDS011;21415;48.054;16.646;2023-02-22T04:33:36;5.47;;;3.25;;
35298;SDS011;21415;48.054;16.646;2023-02-22T04:36:06;3.65;;;2.28;;
35298;SDS011;21415;48.054;16.646;2023-02-22T04:38:36;2.67;;;1.67;;
35298;SDS011;21415;48.054;16.646;2023-02-22T04:41:02;3.30;;;1.70;;
35298;SDS011;21415;48.054;16.646;2023-02-22T04:43:28;2.17;;;1.30;;
35298;SDS011;21415;48.054;16.646;2023-02-22T04:46:02;3.08;;;1.40;;
35298;SDS011;21415;48.054;16.646;2023-02-22T04:50:54;3.03;;;1.52;;
35298;SDS011;21415;48.054;16.646;2023-02-22T04:53:27;3.78;;;1.55;;
35298;SDS011;21415;48.054;16.646;2023-02-22T05:00:47;3.17;;;1.85;;
35298;SDS011;21415;48.054;16.646;2023-02-22T05:03:14;2.70;;;1.60;;
35298;SDS011;21415;48.054;16.646;2023-02-22T05:05:39;3.10;;;1.63;;
35298;SDS011;21415;48.054;16.646;2023-02-22T05:08:05;2.65;;;1.73;;
35298;SDS011;21415;48.054;16.646;2023-02-22T05:10:32;3.67;;;1.90;;
35298;SDS011;21415;48.054;16.646;2023-02-22T05:12:58;3.05;;;1.88;;
35298;SDS011;21415;48.054;16.646;2023-02-22T05:15:23;3.20;;;1.58;;
35298;SDS011;21415;48.054;16.646;2023-02-22T05:17:50;2.10;;;1.42;;
35298;SDS011;21415;48.054;16.646;2023-02-22T05:20:27;2.60;;;1.52;;
35298;SDS011;21415;48.054;16.646;2023-02-22T05:22:58;2.78;;;1.70;;
35298;SDS011;21415;48.054;16.646;2023-02-22T05:25:25;4.50;;;2.72;;
35298;SDS011;21415;48.054;16.646;2023-02-22T05:30:22;3.05;;;1.83;;
35298;SDS011;21415;48.054;16.646;2023-02-22T05:32:52;1.77;;;1.35;;
35298;SDS011;21415;48.054;16.646;2023-02-22T05:35:18;2.50;;;1.70;;
35298;SDS011;21415;48.054;16.646;2023-02-22T05:37:47;3.05;;;2.00;;
35298;SDS011;21415;48.054;16.646;2023-02-22T05:40:16;3.72;;;1.45;;
35298;SDS011;21415;48.054;16.646;2023-02-22T05:42:48;2.85;;;1.67;;
35298;SDS011;21415;48.054;16.646;2023-02-22T05:45:15;3.90;;;2.08;;
35298;SDS011;21415;48.054;16.646;2023-02-22T05:47:42;4.88;;;1.98;;
35298;SDS011;21415;48.054;16.646;2023-02-22T05:50:12;8.30;;;4.60;;
35298;SDS011;21415;48.054;16.646;2023-02-22T05:52:44;3.70;;;2.75;;
35298;SDS011;21415;48.054;16.646;2023-02-22T05:55:18;6.30;;;2.95;;
35298;SDS011;21415;48.054;16.646;2023-02-22T05:57:48;7.82;;;5.18;;
35298;SDS011;21415;48.054;16.646;2023-02-22T06:00:18;10.65;;;6.78;;
35298;SDS011;21415;48.054;16.646;2023-02-22T06:02:54;7.22;;;4.75;;
35298;SDS011;21415;48.054;16.646;2023-02-22T06:05:25;7.28;;;5.05;;
35298;SDS011;21415;48.054;16.646;2023-02-22T06:12:49;3.65;;;2.53;;
35298;SDS011;21415;48.054;16.646;2023-02-22T06:15:22;3.65;;;2.42;;
35298;SDS011;21415;48.054;16.646;2023-02-22T06:17:49;4.28;;;2.00;;
35298;SDS011;21415;48.054;16.646;2023-02-22T06:20:17;2.92;;;2.03;;
35298;SDS011;21415;48.054;16.646;2023-02-22T06:22:48;3.13;;;1.80;;
35298;SDS011;21415;48.054;16.646;2023-02-22T06:25:22;2.95;;;1.83;;
35298;SDS011;21415;48.054;16.646;2023-02-22T06:27:58;3.25;;;1.58;;
35298;SDS011;21415;48.054;16.646;2023-02-22T06:30:31;3.25;;;1.75;;
35298;SDS011;21415;48.054;16.646;2023-02-22T06:32:59;3.35;;;2.25;;
35298;SDS011;21415;48.054;16.646;2023-02-22T06:35:25;3.65;;;2.10;;
35298;SDS011;21415;48.054;16.646;2023-02-22T06:37:51;4.90;;;2.30;;
35298;SDS011;21415;48.054;16.646;2023-02-22T06:40:17;3.10;;;2.10;;
35298;SDS011;21415;48.054;16.646;2023-02-22T06:42:43;2.80;;;1.70;;
35298;SDS011;21415;48.054;16.646;2023-02-22T06:45:13;3.38;;;2.05;;
35298;SDS011;21415;48.054;16.646;2023-02-22T06:47:40;3.80;;;2.20;;
35298;SDS011;21415;48.054;16.646;2023-02-22T06:50:06;3.67;;;1.98;;
35298;SDS011;21415;48.054;16.646;2023-02-22T06:52:41;3.90;;;2.25;;
35298;SDS011;21415;48.054;16.646;2023-02-22T06:55:07;3.42;;;2.35;;
35298;SDS011;21415;48.054;16.646;2023-02-22T06:57:33;3.38;;;2.25;;
35298;SDS011;21415;48.054;16.646;2023-02-22T06:59:59;3.13;;;2.25;;
35298;SDS011;21415;48.054;16.646;2023-02-22T07:02:24;4.07;;;2.58;;
35298;SDS011;21415;48.054;16.646;2023-02-22T07:04:50;11.73;;;5.05;;
35298;SDS011;21415;48.054;16.646;2023-02-22T07:07:16;9.25;;;4.65;;
35298;SDS011;21415;48.054;16.646;2023-02-22T07:09:46;16.35;;;7.05;;
35298;SDS011;21415;48.054;16.646;2023-02-22T07:12:12;25.00;;;10.40;;
35298;SDS011;21415;48.054;16.646;2023-02-22T07:14:38;28.45;;;11.82;;
35298;SDS011;21415;48.054;16.646;2023-02-22T07:17:04;27.40;;;9.88;;
35298;SDS011;21415;48.054;16.646;2023-02-22T07:19:29;15.63;;;7.07;;
35298;SDS011;21415;48.054;16.646;2023-02-22T07:21:55;13.23;;;5.75;;
35298;SDS011;21415;48.054;16.646;2023-02-22T07:24:24;10.18;;;5.38;;
35298;SDS011;21415;48.054;16.646;2023-02-22T07:26:52;11.27;;;5.10;;
35298;SDS011;21415;48.054;16.646;2023-02-22T07:29:18;10.23;;;4.35;;
35298;SDS011;21415;48.054;16.646;2023-02-22T07:31:46;8.45;;;4.40;;
35298;SDS011;21415;48.054;16.646;2023-02-22T07:34:12;5.72;;;3.20;;
35298;SDS011;21415;48.054;16.646;2023-02-22T07:36:38;8.18;;;3.50;;
35298;SDS011;21415;48.054;16.646;2023-02-22T07:39:04;8.70;;;3.90;;
35298;SDS011;21415;48.054;16.646;2023-02-22T07:41:33;5.60;;;3.00;;
35298;SDS011;21415;48.054;16.646;2023-02-22T07:43:59;6.22;;;3.33;;
35298;SDS011;21415;48.054;16.646;2023-02-22T07:46:24;5.40;;;3.03;;
35298;SDS011;21415;48.054;16.646;2023-02-22T07:48:50;4.97;;;2.92;;
35298;SDS011;21415;48.054;16.646;2023-02-22T07:51:16;5.70;;;2.97;;
35298;SDS011;21415;48.054;16.646;2023-02-22T07:53:44;11.68;;;5.43;;
35298;SDS011;21415;48.054;16.646;2023-02-22T07:56:12;22.73;;;9.43;;
35298;SDS011;21415;48.054;16.646;2023-02-22T07:58:38;18.33;;;8.82;;
35298;SDS011;21415;48.054;16.646;2023-02-22T08:01:04;16.40;;;8.45;;
35298;SDS011;21415;48.054;16.646;2023-02-22T08:03:31;12.35;;;6.72;;
35298;SDS011;21415;48.054;16.646;2023-02-22T08:06:02;12.20;;;6.47;;
35298;SDS011;21415;48.054;16.646;2023-02-22T08:08:31;16.60;;;7.35;;
35298;SDS011;21415;48.054;16.646;2023-02-22T08:10:57;16.30;;;8.77;;
35298;SDS011;21415;48.054;16.646;2023-02-22T08:13:23;12.90;;;7.45;;
35298;SDS011;21415;48.054;16.646;2023-02-22T08:15:50;9.80;;;6.03;;
35298;SDS011;21415;48.054;16.646;2023-02-22T08:18:20;10.55;;;5.53;;
35298;SDS011;21415;48.054;16.646;2023-02-22T08:20:49;15.27;;;8.98;;
35298;SDS011;21415;48.054;16.646;2023-02-22T08:23:22;10.32;;;5.90;;
35298;SDS011;21415;48.054;16.646;2023-02-22T08:25:49;5.70;;;3.35;;
35298;SDS011;21415;48.054;16.646;2023-02-22T08:28:16;6.07;;;2.80;;
35298;SDS011;21415;48.054;16.646;2023-02-22T08:30:48;3.30;;;2.70;;
35298;SDS011;21415;48.054;16.646;2023-02-22T08:33:17;5.03;;;2.63;;
35298;SDS011;21415;48.054;16.646;2023-02-22T08:35:46;5.80;;;2.78;;
35298;SDS011;21415;48.054;16.646;2023-02-22T08:38:24;8.13;;;2.72;;
35298;SDS011;21415;48.054;16.646;2023-02-22T08:40:51;14.07;;;5.20;;
35298;SDS011;21415;48.054;16.646;2023-02-22T08:43:17;3.85;;;2.95;;
35298;SDS011;21415;48.054;16.646;2023-02-22T08:45:45;3.67;;;2.60;;
35298;SDS011;21415;48.054;16.646;2023-02-22T08:48:12;6.53;;;2.70;;
35298;SDS011;21415;48.054;16.646;2023-02-22T08:50:39;5.35;;;2.28;;
35298;SDS011;21415;48.054;16.646;2023-02-22T08:53:06;3.83;;;2.33;;
35298;SDS011;21415;48.054;16.646;2023-02-22T08:55:34;5.28;;;2.67;;
35298;SDS011;21415;48.054;16.646;2023-02-22T08:58:01;4.28;;;2.70;;
35298;SDS011;21415;48.054;16.646;2023-02-22T09:00:30;5.88;;;2.65;;
35298;SDS011;21415;48.054;16.646;2023-02-22T09:03:04;5.93;;;3.25;;
35298;SDS011;21415;48.054;16.646;2023-02-22T09:05:32;5.32;;;2.50;;
35298;SDS011;21415;48.054;16.646;2023-02-22T09:07:58;4.35;;;2.67;;
35298;SDS011;21415;48.054;16.646;2023-02-22T09:10:26;4.55;;;2.67;;
35298;SDS011;21415;48.054;16.646;2023-02-22T09:12:54;3.83;;;2.67;;
35298;SDS011;21415;48.054;16.646;2023-02-22T09:15:20;3.20;;;2.53;;
35298;SDS011;21415;48.054;16.646;2023-02-22T09:17:47;3.30;;;2.40;;
35298;SDS011;21415;48.054;16.646;2023-02-22T09:20:17;3.97;;;2.70;;
35298;SDS011;21415;48.054;16.646;2023-02-22T09:22:45;4.07;;;2.65;;
35298;SDS011;21415;48.054;16.646;2023-02-22T09:25:11;6.60;;;2.80;;
35298;SDS011;21415;48.054;16.646;2023-02-22T09:27:37;5.95;;;3.55;;
35298;SDS011;21415;48.054;16.646;2023-02-22T09:30:04;6.03;;;4.18;;
35298;SDS011;21415;48.054;16.646;2023-02-22T09:32:35;5.80;;;4.38;;
35298;SDS011;21415;48.054;16.646;2023-02-22T09:35:01;4.72;;;3.80;;
35298;SDS011;21415;48.054;16.646;2023-02-22T09:37:27;5.25;;;3.42;;
35298;SDS011;21415;48.054;16.646;2023-02-22T09:39:53;4.50;;;2.92;;
35298;SDS011;21415;48.054;16.646;2023-02-22T09:42:30;4.70;;;2.88;;
35298;SDS011;21415;48.054;16.646;2023-02-22T09:45:09;4.47;;;2.92;;
35298;SDS011;21415;48.054;16.646;2023-02-22T09:47:46;3.10;;;2.40;;
35298;SDS011;21415;48.054;16.646;2023-02-22T09:50:25;4.20;;;2.90;;
35298;SDS011;21415;48.054;16.646;2023-02-22T09:55:54;5.53;;;3.20;;
35298;SDS011;21415;48.054;16.646;2023-02-22T09:58:38;4.63;;;2.88;;
35298;SDS011;21415;48.054;16.646;2023-02-22T10:01:30;3.83;;;2.88;;
35298;SDS011;21415;48.054;16.646;2023-02-22T10:09:37;3.50;;;2.95;;
35298;SDS011;21415;48.054;16.646;2023-02-22T10:12:10;3.78;;;2.70;;
35298;SDS011;21415;48.054;16.646;2023-02-22T10:15:02;5.65;;;3.33;;
35298;SDS011;21415;48.054;16.646;2023-02-22T10:18:20;3.88;;;2.63;;
35298;SDS011;21415;48.054;16.646;2023-02-22T10:23:25;2.85;;;2.47;;
35298;SDS011;21415;48.054;16.646;2023-02-22T10:26:17;3.55;;;2.55;;
35298;SDS011;21415;48.054;16.646;2023-02-22T10:31:26;4.50;;;3.00;;
35298;SDS011;21415;48.054;16.646;2023-02-22T10:34:04;3.92;;;2.35;;
35298;SDS011;21415;48.054;16.646;2023-02-22T10:36:37;3.35;;;2.53;;
35298;SDS011;21415;48.054;16.646;2023-02-22T10:39:23;3.80;;;2.88;;
35298;SDS011;21415;48.054;16.646;2023-02-22T10:42:05;3.20;;;2.30;;
35298;SDS011;21415;48.054;16.646;2023-02-22T10:44:36;3.05;;;2.55;;
35298;SDS011;21415;48.054;16.646;2023-02-22T10:47:10;2.88;;;2.20;;
35298;SDS011;21415;48.054;16.646;2023-02-22T10:49:40;2.50;;;1.50;;
35298;SDS011;21415;48.054;16.646;2023-02-22T10:54:50;6.22;;;4.28;;
35298;SDS011;21415;48.054;16.646;2023-02-22T10:57:22;5.07;;;3.10;;
35298;SDS011;21415;48.054;16.646;2023-02-22T10:59:54;2.33;;;1.85;;
35298;SDS011;21415;48.054;16.646;2023-02-22T11:02:28;2.95;;;2.50;;
35298;SDS011;21415;48.054;16.646;2023-02-22T11:04:57;3.60;;;2.30;;
35298;SDS011;21415;48.054;16.646;2023-02-22T11:09:54;3.05;;;2.17;;
35298;SDS011;21415;48.054;16.646;2023-02-22T11:12:30;2.85;;;2.33;;
35298;SDS011;21415;48.054;16.646;2023-02-22T11:17:56;1.88;;;1.30;;
35298;SDS011;21415;48.054;16.646;2023-02-22T11:20:29;7.93;;;4.20;;
35298;SDS011;21415;48.054;16.646;2023-02-22T11:23:02;8.68;;;5.05;;
35298;SDS011;21415;48.054;16.646;2023-02-22T11:25:35;9.30;;;5.55;;
35298;SDS011;21415;48.054;16.646;2023-02-22T11:28:07;12.32;;;7.45;;
35298;SDS011;21415;48.054;16.646;2023-02-22T11:30:34;5.72;;;3.67;;
35298;SDS011;21415;48.054;16.646;2023-02-22T11:33:15;3.85;;;2.42;;
35298;SDS011;21415;48.054;16.646;2023-02-22T11:36:00;6.70;;;3.97;;
35298;SDS011;21415;48.054;16.646;2023-02-22T11:38:38;3.55;;;2.58;;
35298;SDS011;21415;48.054;16.646;2023-02-22T11:41:18;2.25;;;1.48;;
35298;SDS011;21415;48.054;16.646;2023-02-22T11:43:50;2.67;;;2.08;;
35298;SDS011;21415;48.054;16.646;2023-02-22T11:46:25;4.45;;;2.80;;
35298;SDS011;21415;48.054;16.646;2023-02-22T11:48:55;4.80;;;3.03;;
35298;SDS011;21415;48.054;16.646;2023-02-22T11:56:59;3.70;;;2.40;;
35298;SDS011;21415;48.054;16.646;2023-02-22T12:05:21;3.03;;;2.17;;
35298;SDS011;21415;48.054;16.646;2023-02-22T12:08:13;7.97;;;4.65;;
35298;SDS011;21415;48.054;16.646;2023-02-22T12:21:35;2.45;;;2.00;;
35298;SDS011;21415;48.054;16.646;2023-02-22T12:24:06;2.40;;;1.90;;
35298;SDS011;21415;48.054;16.646;2023-02-22T12:26:45;2.17;;;1.90;;
35298;SDS011;21415;48.054;16.646;2023-02-22T12:34:50;5.80;;;2.72;;
35298;SDS011;21415;48.054;16.646;2023-02-22T12:37:25;3.60;;;2.13;;
35298;SDS011;21415;48.054;16.646;2023-02-22T12:40:07;2.50;;;2.30;;
35298;SDS011;21415;48.054;16.646;2023-02-22T12:45:33;3.13;;;2.00;;
35298;SDS011;21415;48.054;16.646;2023-02-22T12:54:15;2.47;;;1.90;;
35298;SDS011;21415;48.054;16.646;2023-02-22T12:56:52;3.00;;;2.13;;
35298;SDS011;21415;48.054;16.646;2023-02-22T12:59:38;4.07;;;2.08;;
35298;SDS011;21415;48.054;16.646;2023-02-22T13:02:31;2.72;;;2.05;;
35298;SDS011;21415;48.054;16.646;2023-02-22T13:05:11;2.77;;;2.20;;
35298;SDS011;21415;48.054;16.646;2023-02-22T13:07:56;2.25;;;1.60;;
35298;SDS011;21415;48.054;16.646;2023-02-22T13:13:31;2.88;;;2.05;;
35298;SDS011;21415;48.054;16.646;2023-02-22T13:19:34;3.88;;;2.05;;
35298;SDS011;21415;48.054;16.646;2023-02-22T13:22:12;3.35;;;2.20;;
35298;SDS011;21415;48.054;16.646;2023-02-22T13:27:19;3.15;;;1.90;;
35298;SDS011;21415;48.054;16.646;2023-02-22T13:29:51;2.55;;;1.95;;
35298;SDS011;21415;48.054;16.646;2023-02-22T13:38:09;2.72;;;1.90;;
35298;SDS011;21415;48.054;16.646;2023-02-22T13:41:15;2.45;;;1.80;;
35298;SDS011;21415;48.054;16.646;2023-02-22T13:46:49;3.53;;;2.17;;
35298;SDS011;21415;48.054;16.646;2023-02-22T13:52:09;3.40;;;1.95;;
35298;SDS011;21415;48.054;16.646;2023-02-22T13:54:43;2.60;;;1.83;;
35298;SDS011;21415;48.054;16.646;2023-02-22T14:03:04;2.55;;;1.75;;
35298;SDS011;21415;48.054;16.646;2023-02-22T14:16:31;2.13;;;1.63;;
35298;SDS011;21415;48.054;16.646;2023-02-22T14:19:17;3.67;;;1.73;;
35298;SDS011;21415;48.054;16.646;2023-02-22T14:21:59;2.08;;;1.70;;
35298;SDS011;21415;48.054;16.646;2023-02-22T14:24:41;3.22;;;1.83;;
35298;SDS011;21415;48.054;16.646;2023-02-22T14:27:09;3.95;;;1.52;;
35298;SDS011;21415;48.054;16.646;2023-02-22T14:29:55;2.20;;;1.45;;
35298;SDS011;21415;48.054;16.646;2023-02-22T14:32:31;1.58;;;1.25;;
35298;SDS011;21415;48.054;16.646;2023-02-22T14:35:05;2.28;;;1.60;;
35298;SDS011;21415;48.054;16.646;2023-02-22T14:37:38;1.67;;;1.25;;
35298;SDS011;21415;48.054;16.646;2023-02-22T14:40:16;2.55;;;1.25;;
35298;SDS011;21415;48.054;16.646;2023-02-22T14:42:46;2.72;;;1.55;;
35298;SDS011;21415;48.054;16.646;2023-02-22T14:45:31;2.75;;;1.30;;
35298;SDS011;21415;48.054;16.646;2023-02-22T14:50:49;4.95;;;1.42;;
35298;SDS011;21415;48.054;16.646;2023-02-22T14:53:25;2.35;;;1.50;;
35298;SDS011;21415;48.054;16.646;2023-02-22T14:56:02;4.40;;;1.77;;
35298;SDS011;21415;48.054;16.646;2023-02-22T14:58:41;2.03;;;1.63;;
35298;SDS011;21415;48.054;16.646;2023-02-22T15:01:28;3.40;;;1.90;;
35298;SDS011;21415;48.054;16.646;2023-02-22T15:04:15;3.90;;;2.17;;
35298;SDS011;21415;48.054;16.646;2023-02-22T15:06:51;4.38;;;2.38;;
35298;SDS011;21415;48.054;16.646;2023-02-22T15:09:21;4.00;;;2.50;;
35298;SDS011;21415;48.054;16.646;2023-02-22T15:11:54;3.17;;;2.28;;
35298;SDS011;21415;48.054;16.646;2023-02-22T15:14:29;4.65;;;2.47;;
35298;SDS011;21415;48.054;16.646;2023-02-22T15:16:58;3.88;;;2.20;;
35298;SDS011;21415;48.054;16.646;2023-02-22T15:19:30;3.80;;;2.28;;
35298;SDS011;21415;48.054;16.646;2023-02-22T15:22:02;2.75;;;1.95;;
35298;SDS011;21415;48.054;16.646;2023-02-22T15:24:32;3.05;;;2.63;;
35298;SDS011;21415;48.054;16.646;2023-02-22T15:27:06;3.75;;;2.40;;
35298;SDS011;21415;48.054;16.646;2023-02-22T15:29:41;8.10;;;4.40;;
35298;SDS011;21415;48.054;16.646;2023-02-22T15:34:51;4.38;;;3.20;;
35298;SDS011;21415;48.054;16.646;2023-02-22T15:37:24;4.57;;;3.10;;
35298;SDS011;21415;48.054;16.646;2023-02-22T15:39:53;5.75;;;3.30;;
35298;SDS011;21415;48.054;16.646;2023-02-22T15:42:51;3.40;;;2.92;;
35298;SDS011;21415;48.054;16.646;2023-02-22T15:45:23;5.30;;;3.37;;
35298;SDS011;21415;48.054;16.646;2023-02-22T15:47:50;8.32;;;4.90;;
35298;SDS011;21415;48.054;16.646;2023-02-22T15:52:59;11.45;;;5.57;;
35298;SDS011;21415;48.054;16.646;2023-02-22T15:55:37;8.68;;;5.28;;
35298;SDS011;21415;48.054;16.646;2023-02-22T16:00:35;6.38;;;4.63;;
35298;SDS011;21415;48.054;16.646;2023-02-22T16:03:17;7.55;;;4.13;;
35298;SDS011;21415;48.054;16.646;2023-02-22T16:05:55;4.97;;;3.70;;
35298;SDS011;21415;48.054;16.646;2023-02-22T16:11:42;5.50;;;3.15;;
35298;SDS011;21415;48.054;16.646;2023-02-22T16:14:29;3.92;;;3.10;;
35298;SDS011;21415;48.054;16.646;2023-02-22T16:19:58;4.70;;;3.22;;
35298;SDS011;21415;48.054;16.646;2023-02-22T16:22:28;4.18;;;3.38;;
35298;SDS011;21415;48.054;16.646;2023-02-22T16:28:03;6.50;;;4.05;;
35298;SDS011;21415;48.054;16.646;2023-02-22T16:30:55;4.32;;;3.17;;
35298;SDS011;21415;48.054;16.646;2023-02-22T16:33:22;5.47;;;4.00;;
35298;SDS011;21415;48.054;16.646;2023-02-22T16:35:51;8.20;;;4.40;;
35298;SDS011;21415;48.054;16.646;2023-02-22T16:38:30;7.53;;;4.22;;
35298;SDS011;21415;48.054;16.646;2023-02-22T16:41:03;6.82;;;3.92;;
35298;SDS011;21415;48.054;16.646;2023-02-22T16:43:31;7.28;;;3.97;;
35298;SDS011;21415;48.054;16.646;2023-02-22T16:45:58;6.70;;;3.88;;
35298;SDS011;21415;48.054;16.646;2023-02-22T16:48:28;6.90;;;4.13;;
35298;SDS011;21415;48.054;16.646;2023-02-22T16:51:24;5.90;;;3.28;;
35298;SDS011;21415;48.054;16.646;2023-02-22T16:53:57;5.55;;;3.55;;
35298;SDS011;21415;48.054;16.646;2023-02-22T16:56:28;4.95;;;3.85;;
35298;SDS011;21415;48.054;16.646;2023-02-22T16:59:00;5.80;;;3.80;;
35298;SDS011;21415;48.054;16.646;2023-02-22T17:01:30;4.70;;;3.67;;
35298;SDS011;21415;48.054;16.646;2023-02-22T17:04:00;6.50;;;3.60;;
35298;SDS011;21415;48.054;16.646;2023-02-22T17:06:38;3.70;;;3.22;;
35298;SDS011;21415;48.054;16.646;2023-02-22T17:09:04;5.55;;;3.17;;
35298;SDS011;21415;48.054;16.646;2023-02-22T17:11:33;6.63;;;3.40;;
35298;SDS011;21415;48.054;16.646;2023-02-22T17:14:00;4.88;;;3.28;;
35298;SDS011;21415;48.054;16.646;2023-02-22T17:16:26;5.22;;;3.13;;
35298;SDS011;21415;48.054;16.646;2023-02-22T17:18:52;6.68;;;3.45;;
35298;SDS011;21415;48.054;16.646;2023-02-22T17:21:18;5.88;;;3.58;;
35298;SDS011;21415;48.054;16.646;2023-02-22T17:23:46;5.38;;;3.83;;
35298;SDS011;21415;48.054;16.646;2023-02-22T17:26:13;4.28;;;3.50;;
35298;SDS011;21415;48.054;16.646;2023-02-22T17:28:44;6.07;;;4.20;;
35298;SDS011;21415;48.054;16.646;2023-02-22T17:31:14;5.93;;;3.75;;
35298;SDS011;21415;48.054;16.646;2023-02-22T17:33:46;5.88;;;4.50;;
35298;SDS011;21415;48.054;16.646;2023-02-22T17:36:12;6.28;;;4.60;;
35298;SDS011;21415;48.054;16.646;2023-02-22T17:38:38;5.53;;;4.15;;
35298;SDS011;21415;48.054;16.646;2023-02-22T17:41:06;7.82;;;4.97;;
35298;SDS011;21415;48.054;16.646;2023-02-22T17:43:32;6.50;;;4.85;;